sensor_id;sensor_type;location;lat;lon;timestamp;P1;durP1;ratioP1;P2;durP2;ratioP2
76346;SDS011;73309;48.818;9.806;2023-11-19T00:00:31;3.30;;;3.00;;
76346;SDS011;73309;48.818;9.806;2023-11-19T00:02:56;3.00;;;2.70;;
76346;SDS011;73309;48.818;9.806;2023-11-19T00:05:22;3.10;;;2.87;;
76346;SDS011;73309;48.818;9.806;2023-11-19T00:07:47;3.53;;;2.80;;
76346;SDS011;73309;48.818;9.806;2023-11-19T00:10:13;3.13;;;2.70;;
76346;SDS011;73309;48.818;9.806;2023-11-19T00:12:41;4.80;;;2.97;;
76346;SDS011;73309;48.818;9.806;2023-11-19T00:15:09;3.50;;;2.90;;
76346;SDS011;73309;48.818;9.806;2023-11-19T00:17:35;2.90;;;2.60;;
76346;SDS011;73309;48.818;9.806;2023-11-19T00:20:00;2.90;;;2.60;;
76346;SDS011;73309;48.818;9.806;2023-11-19T00:22:26;2.67;;;2.47;;
76346;SDS011;73309;48.818;9.806;2023-11-19T00:24:51;2.97;;;2.70;;
76346;SDS011;73309;48.818;9.806;2023-11-19T00:27:16;2.87;;;2.60;;
76346;SDS011;73309;48.818;9.806;2023-11-19T00:29:42;2.80;;;2.33;;
76346;SDS011;73309;48.818;9.806;2023-11-19T00:32:08;2.60;;;2.40;;
76346;SDS011;73309;48.818;9.806;2023-11-19T00:34:34;2.73;;;2.43;;
76346;SDS011;73309;48.818;9.806;2023-11-19T00:36:59;2.40;;;2.20;;
76346;SDS011;73309;48.818;9.806;2023-11-19T00:39:25;2.73;;;2.40;;
76346;SDS011;73309;48.818;9.806;2023-11-19T00:41:50;2.27;;;2.07;;
76346;SDS011;73309;48.818;9.806;2023-11-19T00:44:15;2.50;;;2.20;;
76346;SDS011;73309;48.818;9.806;2023-11-19T00:46:41;2.30;;;2.10;;
76346;SDS011;73309;48.818;9.806;2023-11-19T00:49:08;2.93;;;2.60;;
76346;SDS011;73309;48.818;9.806;2023-11-19T00:51:33;2.30;;;2.10;;
76346;SDS011;73309;48.818;9.806;2023-11-19T00:53:58;2.30;;;2.10;;
76346;SDS011;73309;48.818;9.806;2023-11-19T00:56:24;2.50;;;2.30;;
76346;SDS011;73309;48.818;9.806;2023-11-19T00:58:49;2.30;;;2.10;;
76346;SDS011;73309;48.818;9.806;2023-11-19T01:01:14;2.30;;;2.03;;
76346;SDS011;73309;48.818;9.806;2023-11-19T01:03:40;2.47;;;2.00;;
76346;SDS011;73309;48.818;9.806;2023-11-19T01:06:07;2.83;;;2.07;;
76346;SDS011;73309;48.818;9.806;2023-11-19T01:08:33;2.40;;;2.00;;
76346;SDS011;73309;48.818;9.806;2023-11-19T01:10:58;2.60;;;1.90;;
76346;SDS011;73309;48.818;9.806;2023-11-19T01:13:23;2.40;;;1.90;;
76346;SDS011;73309;48.818;9.806;2023-11-19T01:15:49;2.50;;;1.90;;
76346;SDS011;73309;48.818;9.806;2023-11-19T01:18:14;2.20;;;2.00;;
76346;SDS011;73309;48.818;9.806;2023-11-19T01:20:40;2.10;;;1.90;;
76346;SDS011;73309;48.818;9.806;2023-11-19T01:23:07;2.57;;;2.03;;
76346;SDS011;73309;48.818;9.806;2023-11-19T01:25:32;1.90;;;1.80;;
76346;SDS011;73309;48.818;9.806;2023-11-19T01:27:57;2.30;;;2.00;;
76346;SDS011;73309;48.818;9.806;2023-11-19T01:30:23;2.00;;;1.80;;
76346;SDS011;73309;48.818;9.806;2023-11-19T01:32:48;2.00;;;1.80;;
76346;SDS011;73309;48.818;9.806;2023-11-19T01:35:14;1.93;;;1.80;;
76346;SDS011;73309;48.818;9.806;2023-11-19T01:37:39;2.37;;;1.77;;
76346;SDS011;73309;48.818;9.806;2023-11-19T01:40:06;1.80;;;1.70;;
76346;SDS011;73309;48.818;9.806;2023-11-19T01:42:35;2.37;;;1.77;;
76346;SDS011;73309;48.818;9.806;2023-11-19T01:45:01;1.80;;;1.70;;
76346;SDS011;73309;48.818;9.806;2023-11-19T01:47:27;2.10;;;1.90;;
76346;SDS011;73309;48.818;9.806;2023-11-19T01:49:55;2.00;;;1.80;;
76346;SDS011;73309;48.818;9.806;2023-11-19T01:52:21;1.80;;;1.70;;
76346;SDS011;73309;48.818;9.806;2023-11-19T01:54:47;2.00;;;1.80;;
76346;SDS011;73309;48.818;9.806;2023-11-19T01:57:14;1.90;;;1.70;;
76346;SDS011;73309;48.818;9.806;2023-11-19T01:59:40;2.03;;;1.83;;
76346;SDS011;73309;48.818;9.806;2023-11-19T02:02:05;2.10;;;1.90;;
76346;SDS011;73309;48.818;9.806;2023-11-19T02:04:31;2.00;;;1.80;;
76346;SDS011;73309;48.818;9.806;2023-11-19T02:06:57;2.13;;;1.80;;
76346;SDS011;73309;48.818;9.806;2023-11-19T02:09:23;1.70;;;1.60;;
76346;SDS011;73309;48.818;9.806;2023-11-19T02:11:49;2.00;;;1.80;;
76346;SDS011;73309;48.818;9.806;2023-11-19T02:14:16;1.67;;;1.57;;
76346;SDS011;73309;48.818;9.806;2023-11-19T02:16:42;1.77;;;1.63;;
76346;SDS011;73309;48.818;9.806;2023-11-19T02:19:07;1.70;;;1.60;;
76346;SDS011;73309;48.818;9.806;2023-11-19T02:21:32;1.70;;;1.60;;
76346;SDS011;73309;48.818;9.806;2023-11-19T02:23:58;2.00;;;1.80;;
76346;SDS011;73309;48.818;9.806;2023-11-19T02:26:24;1.83;;;1.67;;
76346;SDS011;73309;48.818;9.806;2023-11-19T02:28:55;1.90;;;1.70;;
76346;SDS011;73309;48.818;9.806;2023-11-19T02:31:21;2.00;;;1.70;;
76346;SDS011;73309;48.818;9.806;2023-11-19T02:33:46;1.73;;;1.50;;
76346;SDS011;73309;48.818;9.806;2023-11-19T02:36:12;1.60;;;1.50;;
76346;SDS011;73309;48.818;9.806;2023-11-19T02:38:37;1.80;;;1.60;;
76346;SDS011;73309;48.818;9.806;2023-11-19T02:41:03;1.70;;;1.60;;
76346;SDS011;73309;48.818;9.806;2023-11-19T02:43:29;1.70;;;1.60;;
76346;SDS011;73309;48.818;9.806;2023-11-19T02:45:56;1.83;;;1.67;;
76346;SDS011;73309;48.818;9.806;2023-11-19T02:48:21;1.70;;;1.50;;
76346;SDS011;73309;48.818;9.806;2023-11-19T02:50:47;1.50;;;1.40;;
76346;SDS011;73309;48.818;9.806;2023-11-19T02:53:12;1.57;;;1.47;;
76346;SDS011;73309;48.818;9.806;2023-11-19T02:55:37;1.53;;;1.43;;
76346;SDS011;73309;48.818;9.806;2023-11-19T02:58:03;1.57;;;1.47;;
76346;SDS011;73309;48.818;9.806;2023-11-19T03:00:29;1.70;;;1.60;;
76346;SDS011;73309;48.818;9.806;2023-11-19T03:02:55;1.50;;;1.40;;
76346;SDS011;73309;48.818;9.806;2023-11-19T03:05:21;1.43;;;1.30;;
76346;SDS011;73309;48.818;9.806;2023-11-19T03:07:46;1.30;;;1.20;;
76346;SDS011;73309;48.818;9.806;2023-11-19T03:10:12;1.63;;;1.50;;
76346;SDS011;73309;48.818;9.806;2023-11-19T03:12:38;1.50;;;1.40;;
76346;SDS011;73309;48.818;9.806;2023-11-19T03:15:03;1.50;;;1.40;;
76346;SDS011;73309;48.818;9.806;2023-11-19T03:17:29;1.37;;;1.20;;
76346;SDS011;73309;48.818;9.806;2023-11-19T03:19:56;1.50;;;1.40;;
76346;SDS011;73309;48.818;9.806;2023-11-19T03:22:21;1.43;;;1.33;;
76346;SDS011;73309;48.818;9.806;2023-11-19T03:24:47;1.40;;;1.30;;
76346;SDS011;73309;48.818;9.806;2023-11-19T03:27:15;1.40;;;1.30;;
76346;SDS011;73309;48.818;9.806;2023-11-19T03:29:40;1.80;;;1.40;;
76346;SDS011;73309;48.818;9.806;2023-11-19T03:32:06;1.30;;;1.20;;
76346;SDS011;73309;48.818;9.806;2023-11-19T03:34:31;1.40;;;1.30;;
76346;SDS011;73309;48.818;9.806;2023-11-19T03:36:58;1.20;;;1.10;;
76346;SDS011;73309;48.818;9.806;2023-11-19T03:39:23;2.20;;;1.30;;
76346;SDS011;73309;48.818;9.806;2023-11-19T03:41:49;1.43;;;1.33;;
76346;SDS011;73309;48.818;9.806;2023-11-19T03:44:14;1.57;;;1.40;;
76346;SDS011;73309;48.818;9.806;2023-11-19T03:46:39;1.50;;;1.30;;
76346;SDS011;73309;48.818;9.806;2023-11-19T03:49:05;1.27;;;1.17;;
76346;SDS011;73309;48.818;9.806;2023-11-19T03:51:30;1.20;;;1.10;;
76346;SDS011;73309;48.818;9.806;2023-11-19T03:53:57;1.20;;;1.10;;
76346;SDS011;73309;48.818;9.806;2023-11-19T03:56:22;1.27;;;1.17;;
76346;SDS011;73309;48.818;9.806;2023-11-19T03:58:48;1.27;;;1.17;;
76346;SDS011;73309;48.818;9.806;2023-11-19T04:01:13;1.37;;;1.27;;
76346;SDS011;73309;48.818;9.806;2023-11-19T04:03:39;1.30;;;1.20;;
76346;SDS011;73309;48.818;9.806;2023-11-19T04:06:04;1.30;;;1.20;;
76346;SDS011;73309;48.818;9.806;2023-11-19T04:08:30;1.20;;;1.10;;
76346;SDS011;73309;48.818;9.806;2023-11-19T04:10:57;1.30;;;1.20;;
76346;SDS011;73309;48.818;9.806;2023-11-19T04:13:22;1.50;;;1.33;;
76346;SDS011;73309;48.818;9.806;2023-11-19T04:15:49;1.30;;;1.20;;
76346;SDS011;73309;48.818;9.806;2023-11-19T04:18:14;1.53;;;1.40;;
76346;SDS011;73309;48.818;9.806;2023-11-19T04:20:40;1.33;;;1.23;;
76346;SDS011;73309;48.818;9.806;2023-11-19T04:23:05;1.40;;;1.30;;
76346;SDS011;73309;48.818;9.806;2023-11-19T04:25:31;1.30;;;1.20;;
76346;SDS011;73309;48.818;9.806;2023-11-19T04:27:57;1.37;;;1.20;;
76346;SDS011;73309;48.818;9.806;2023-11-19T04:30:23;1.30;;;1.20;;
76346;SDS011;73309;48.818;9.806;2023-11-19T04:32:48;2.03;;;1.17;;
76346;SDS011;73309;48.818;9.806;2023-11-19T04:35:13;1.27;;;1.17;;
76346;SDS011;73309;48.818;9.806;2023-11-19T04:37:39;1.30;;;1.20;;
76346;SDS011;73309;48.818;9.806;2023-11-19T04:40:05;1.40;;;1.30;;
76346;SDS011;73309;48.818;9.806;2023-11-19T04:42:31;1.37;;;1.10;;
76346;SDS011;73309;48.818;9.806;2023-11-19T04:44:58;1.33;;;1.20;;
76346;SDS011;73309;48.818;9.806;2023-11-19T04:47:23;1.20;;;1.10;;
76346;SDS011;73309;48.818;9.806;2023-11-19T04:49:48;1.10;;;1.00;;
76346;SDS011;73309;48.818;9.806;2023-11-19T04:52:14;1.13;;;1.03;;
76346;SDS011;73309;48.818;9.806;2023-11-19T04:54:42;1.30;;;1.20;;
76346;SDS011;73309;48.818;9.806;2023-11-19T04:57:08;1.20;;;1.10;;
76346;SDS011;73309;48.818;9.806;2023-11-19T04:59:34;1.20;;;1.10;;
76346;SDS011;73309;48.818;9.806;2023-11-19T05:02:00;1.20;;;1.10;;
76346;SDS011;73309;48.818;9.806;2023-11-19T05:04:26;1.20;;;1.10;;
76346;SDS011;73309;48.818;9.806;2023-11-19T05:06:51;1.10;;;1.00;;
76346;SDS011;73309;48.818;9.806;2023-11-19T05:09:16;1.20;;;1.10;;
76346;SDS011;73309;48.818;9.806;2023-11-19T05:11:42;1.20;;;1.10;;
76346;SDS011;73309;48.818;9.806;2023-11-19T05:14:07;1.40;;;1.30;;
76346;SDS011;73309;48.818;9.806;2023-11-19T05:16:32;1.13;;;1.03;;
76346;SDS011;73309;48.818;9.806;2023-11-19T05:18:59;1.37;;;1.27;;
76346;SDS011;73309;48.818;9.806;2023-11-19T05:21:25;1.63;;;1.23;;
76346;SDS011;73309;48.818;9.806;2023-11-19T05:23:50;1.20;;;1.10;;
76346;SDS011;73309;48.818;9.806;2023-11-19T05:26:19;1.10;;;1.00;;
76346;SDS011;73309;48.818;9.806;2023-11-19T05:28:45;1.20;;;1.10;;
76346;SDS011;73309;48.818;9.806;2023-11-19T05:31:10;1.10;;;1.00;;
76346;SDS011;73309;48.818;9.806;2023-11-19T05:33:36;1.20;;;1.10;;
76346;SDS011;73309;48.818;9.806;2023-11-19T05:36:02;1.23;;;1.13;;
76346;SDS011;73309;48.818;9.806;2023-11-19T05:38:28;1.40;;;1.27;;
76346;SDS011;73309;48.818;9.806;2023-11-19T05:40:54;1.30;;;1.20;;
76346;SDS011;73309;48.818;9.806;2023-11-19T05:43:19;1.27;;;1.17;;
76346;SDS011;73309;48.818;9.806;2023-11-19T05:45:44;1.13;;;1.03;;
76346;SDS011;73309;48.818;9.806;2023-11-19T05:48:10;1.20;;;1.10;;
76346;SDS011;73309;48.818;9.806;2023-11-19T05:50:35;1.30;;;1.20;;
76346;SDS011;73309;48.818;9.806;2023-11-19T05:53:02;1.03;;;0.97;;
76346;SDS011;73309;48.818;9.806;2023-11-19T05:55:27;1.20;;;1.10;;
76346;SDS011;73309;48.818;9.806;2023-11-19T05:57:53;1.00;;;1.00;;
76346;SDS011;73309;48.818;9.806;2023-11-19T06:00:18;1.10;;;0.97;;
76346;SDS011;73309;48.818;9.806;2023-11-19T06:02:43;0.90;;;0.90;;
76346;SDS011;73309;48.818;9.806;2023-11-19T06:05:09;1.10;;;1.00;;
76346;SDS011;73309;48.818;9.806;2023-11-19T06:07:34;0.90;;;0.90;;
76346;SDS011;73309;48.818;9.806;2023-11-19T06:10:01;1.13;;;1.03;;
76346;SDS011;73309;48.818;9.806;2023-11-19T06:12:27;1.13;;;1.03;;
76346;SDS011;73309;48.818;9.806;2023-11-19T06:14:52;0.90;;;0.90;;
76346;SDS011;73309;48.818;9.806;2023-11-19T06:17:18;0.97;;;0.93;;
76346;SDS011;73309;48.818;9.806;2023-11-19T06:19:43;1.07;;;1.00;;
76346;SDS011;73309;48.818;9.806;2023-11-19T06:22:09;1.00;;;0.93;;
76346;SDS011;73309;48.818;9.806;2023-11-19T06:24:34;1.13;;;1.03;;
76346;SDS011;73309;48.818;9.806;2023-11-19T06:27:01;1.40;;;0.93;;
76346;SDS011;73309;48.818;9.806;2023-11-19T06:29:26;0.80;;;0.80;;
76346;SDS011;73309;48.818;9.806;2023-11-19T06:31:51;0.90;;;0.90;;
76346;SDS011;73309;48.818;9.806;2023-11-19T06:34:17;1.00;;;1.00;;
76346;SDS011;73309;48.818;9.806;2023-11-19T06:36:42;1.00;;;0.90;;
76346;SDS011;73309;48.818;9.806;2023-11-19T06:39:08;0.90;;;0.90;;
76346;SDS011;73309;48.818;9.806;2023-11-19T06:41:33;0.90;;;0.90;;
76346;SDS011;73309;48.818;9.806;2023-11-19T06:44:00;4.10;;;1.00;;
76346;SDS011;73309;48.818;9.806;2023-11-19T06:46:25;0.90;;;0.90;;
76346;SDS011;73309;48.818;9.806;2023-11-19T06:48:51;0.90;;;0.90;;
76346;SDS011;73309;48.818;9.806;2023-11-19T06:51:16;0.80;;;0.80;;
76346;SDS011;73309;48.818;9.806;2023-11-19T06:53:42;2.13;;;0.90;;
76346;SDS011;73309;48.818;9.806;2023-11-19T06:56:17;0.90;;;0.90;;
76346;SDS011;73309;48.818;9.806;2023-11-19T06:58:43;1.00;;;0.90;;
76346;SDS011;73309;48.818;9.806;2023-11-19T07:01:09;0.90;;;0.90;;
76346;SDS011;73309;48.818;9.806;2023-11-19T07:03:35;0.90;;;0.90;;
76346;SDS011;73309;48.818;9.806;2023-11-19T07:06:00;0.80;;;0.80;;
76346;SDS011;73309;48.818;9.806;2023-11-19T07:08:25;1.00;;;0.90;;
76346;SDS011;73309;48.818;9.806;2023-11-19T07:10:51;0.80;;;0.80;;
76346;SDS011;73309;48.818;9.806;2023-11-19T07:13:16;1.00;;;0.90;;
76346;SDS011;73309;48.818;9.806;2023-11-19T07:15:42;1.53;;;0.90;;
76346;SDS011;73309;48.818;9.806;2023-11-19T07:18:08;0.90;;;0.90;;
76346;SDS011;73309;48.818;9.806;2023-11-19T07:20:34;0.80;;;0.80;;
76346;SDS011;73309;48.818;9.806;2023-11-19T07:22:59;0.77;;;0.77;;
76346;SDS011;73309;48.818;9.806;2023-11-19T07:25:25;0.90;;;0.90;;
76346;SDS011;73309;48.818;9.806;2023-11-19T07:27:51;0.80;;;0.80;;
76346;SDS011;73309;48.818;9.806;2023-11-19T07:30:16;0.80;;;0.80;;
76346;SDS011;73309;48.818;9.806;2023-11-19T07:32:42;0.73;;;0.73;;
76346;SDS011;73309;48.818;9.806;2023-11-19T07:35:09;0.90;;;0.90;;
76346;SDS011;73309;48.818;9.806;2023-11-19T07:37:34;1.27;;;0.90;;
76346;SDS011;73309;48.818;9.806;2023-11-19T07:39:59;0.90;;;0.90;;
76346;SDS011;73309;48.818;9.806;2023-11-19T07:42:25;1.00;;;0.90;;
76346;SDS011;73309;48.818;9.806;2023-11-19T07:44:50;1.23;;;1.00;;
76346;SDS011;73309;48.818;9.806;2023-11-19T07:47:16;0.80;;;0.80;;
76346;SDS011;73309;48.818;9.806;2023-11-19T07:49:41;2.17;;;0.90;;
76346;SDS011;73309;48.818;9.806;2023-11-19T07:52:08;1.17;;;0.90;;
76346;SDS011;73309;48.818;9.806;2023-11-19T07:54:33;0.80;;;0.80;;
76346;SDS011;73309;48.818;9.806;2023-11-19T07:56:59;0.80;;;0.80;;
76346;SDS011;73309;48.818;9.806;2023-11-19T07:59:24;0.80;;;0.80;;
76346;SDS011;73309;48.818;9.806;2023-11-19T08:01:50;0.80;;;0.80;;
76346;SDS011;73309;48.818;9.806;2023-11-19T08:04:15;0.80;;;0.80;;
76346;SDS011;73309;48.818;9.806;2023-11-19T08:06:41;1.10;;;1.10;;
76346;SDS011;73309;48.818;9.806;2023-11-19T08:09:07;0.80;;;0.80;;
76346;SDS011;73309;48.818;9.806;2023-11-19T08:11:33;1.10;;;0.80;;
76346;SDS011;73309;48.818;9.806;2023-11-19T08:13:58;0.93;;;0.80;;
76346;SDS011;73309;48.818;9.806;2023-11-19T08:16:24;1.00;;;0.90;;
76346;SDS011;73309;48.818;9.806;2023-11-19T08:18:49;0.90;;;0.90;;
76346;SDS011;73309;48.818;9.806;2023-11-19T08:21:14;0.80;;;0.80;;
76346;SDS011;73309;48.818;9.806;2023-11-19T08:23:40;0.90;;;0.90;;
76346;SDS011;73309;48.818;9.806;2023-11-19T08:26:07;0.80;;;0.80;;
76346;SDS011;73309;48.818;9.806;2023-11-19T08:28:32;0.83;;;0.80;;
76346;SDS011;73309;48.818;9.806;2023-11-19T08:30:57;1.27;;;0.80;;
76346;SDS011;73309;48.818;9.806;2023-11-19T08:33:23;0.87;;;0.87;;
76346;SDS011;73309;48.818;9.806;2023-11-19T08:35:48;0.80;;;0.80;;
76346;SDS011;73309;48.818;9.806;2023-11-19T08:38:14;0.90;;;0.90;;
76346;SDS011;73309;48.818;9.806;2023-11-19T08:40:39;0.80;;;0.80;;
76346;SDS011;73309;48.818;9.806;2023-11-19T08:43:06;1.37;;;0.90;;
76346;SDS011;73309;48.818;9.806;2023-11-19T08:45:31;1.30;;;0.90;;
76346;SDS011;73309;48.818;9.806;2023-11-19T08:47:56;0.80;;;0.80;;
76346;SDS011;73309;48.818;9.806;2023-11-19T08:50:22;0.70;;;0.70;;
76346;SDS011;73309;48.818;9.806;2023-11-19T08:52:47;1.47;;;0.90;;
76346;SDS011;73309;48.818;9.806;2023-11-19T08:55:13;0.80;;;0.80;;
76346;SDS011;73309;48.818;9.806;2023-11-19T08:57:38;0.87;;;0.80;;
76346;SDS011;73309;48.818;9.806;2023-11-19T09:00:06;1.00;;;0.90;;
76346;SDS011;73309;48.818;9.806;2023-11-19T09:02:32;0.80;;;0.80;;
76346;SDS011;73309;48.818;9.806;2023-11-19T09:04:57;0.83;;;0.80;;
76346;SDS011;73309;48.818;9.806;2023-11-19T09:07:22;0.93;;;0.73;;
76346;SDS011;73309;48.818;9.806;2023-11-19T09:09:48;0.93;;;0.80;;
76346;SDS011;73309;48.818;9.806;2023-11-19T09:12:13;0.97;;;0.90;;
76346;SDS011;73309;48.818;9.806;2023-11-19T09:14:39;0.80;;;0.80;;
76346;SDS011;73309;48.818;9.806;2023-11-19T09:17:05;0.87;;;0.87;;
76346;SDS011;73309;48.818;9.806;2023-11-19T09:19:32;0.80;;;0.80;;
76346;SDS011;73309;48.818;9.806;2023-11-19T09:21:57;0.80;;;0.80;;
76346;SDS011;73309;48.818;9.806;2023-11-19T09:24:23;0.80;;;0.80;;
76346;SDS011;73309;48.818;9.806;2023-11-19T09:26:48;0.77;;;0.77;;
76346;SDS011;73309;48.818;9.806;2023-11-19T09:29:13;0.70;;;0.70;;
76346;SDS011;73309;48.818;9.806;2023-11-19T09:31:39;0.90;;;0.90;;
76346;SDS011;73309;48.818;9.806;2023-11-19T09:34:05;0.80;;;0.80;;
76346;SDS011;73309;48.818;9.806;2023-11-19T09:36:31;0.97;;;0.90;;
76346;SDS011;73309;48.818;9.806;2023-11-19T09:38:56;1.00;;;0.90;;
76346;SDS011;73309;48.818;9.806;2023-11-19T09:41:22;0.80;;;0.80;;
76346;SDS011;73309;48.818;9.806;2023-11-19T09:43:48;1.00;;;0.90;;
76346;SDS011;73309;48.818;9.806;2023-11-19T09:46:14;0.67;;;0.67;;
76346;SDS011;73309;48.818;9.806;2023-11-19T09:48:41;0.80;;;0.80;;
76346;SDS011;73309;48.818;9.806;2023-11-19T09:51:09;1.43;;;0.90;;
76346;SDS011;73309;48.818;9.806;2023-11-19T09:53:35;0.70;;;0.70;;
76346;SDS011;73309;48.818;9.806;2023-11-19T09:56:01;0.80;;;0.80;;
76346;SDS011;73309;48.818;9.806;2023-11-19T09:58:27;0.87;;;0.87;;
76346;SDS011;73309;48.818;9.806;2023-11-19T10:00:52;0.97;;;0.70;;
76346;SDS011;73309;48.818;9.806;2023-11-19T10:03:18;0.80;;;0.80;;
76346;SDS011;73309;48.818;9.806;2023-11-19T10:05:43;1.63;;;1.00;;
76346;SDS011;73309;48.818;9.806;2023-11-19T10:08:11;0.80;;;0.80;;
76346;SDS011;73309;48.818;9.806;2023-11-19T10:10:37;0.80;;;0.80;;
76346;SDS011;73309;48.818;9.806;2023-11-19T10:13:02;0.80;;;0.80;;
76346;SDS011;73309;48.818;9.806;2023-11-19T10:15:28;0.83;;;0.83;;
76346;SDS011;73309;48.818;9.806;2023-11-19T10:18:00;1.07;;;0.97;;
76346;SDS011;73309;48.818;9.806;2023-11-19T10:20:26;1.50;;;0.90;;
76346;SDS011;73309;48.818;9.806;2023-11-19T10:22:52;1.13;;;1.03;;
76346;SDS011;73309;48.818;9.806;2023-11-19T10:25:26;1.27;;;0.90;;
76346;SDS011;73309;48.818;9.806;2023-11-19T10:27:52;1.13;;;0.90;;
76346;SDS011;73309;48.818;9.806;2023-11-19T10:30:18;0.80;;;0.80;;
76346;SDS011;73309;48.818;9.806;2023-11-19T10:32:45;1.03;;;0.97;;
76346;SDS011;73309;48.818;9.806;2023-11-19T10:35:11;0.93;;;0.90;;
76346;SDS011;73309;48.818;9.806;2023-11-19T10:37:36;0.97;;;0.90;;
76346;SDS011;73309;48.818;9.806;2023-11-19T10:40:01;1.03;;;0.93;;
76346;SDS011;73309;48.818;9.806;2023-11-19T10:42:28;1.10;;;0.90;;
76346;SDS011;73309;48.818;9.806;2023-11-19T10:44:54;0.90;;;0.90;;
76346;SDS011;73309;48.818;9.806;2023-11-19T10:47:19;1.47;;;1.00;;
76346;SDS011;73309;48.818;9.806;2023-11-19T10:49:45;1.60;;;1.03;;
76346;SDS011;73309;48.818;9.806;2023-11-19T10:52:10;1.00;;;0.90;;
76346;SDS011;73309;48.818;9.806;2023-11-19T10:54:36;1.03;;;0.93;;
76346;SDS011;73309;48.818;9.806;2023-11-19T10:57:05;1.77;;;1.00;;
76346;SDS011;73309;48.818;9.806;2023-11-19T10:59:35;0.97;;;0.90;;
76346;SDS011;73309;48.818;9.806;2023-11-19T11:02:03;1.03;;;0.93;;
76346;SDS011;73309;48.818;9.806;2023-11-19T11:04:31;1.00;;;0.90;;
76346;SDS011;73309;48.818;9.806;2023-11-19T11:07:04;0.90;;;0.90;;
76346;SDS011;73309;48.818;9.806;2023-11-19T11:09:32;1.00;;;0.90;;
76346;SDS011;73309;48.818;9.806;2023-11-19T11:11:57;0.90;;;0.90;;
76346;SDS011;73309;48.818;9.806;2023-11-19T11:14:24;1.43;;;1.00;;
76346;SDS011;73309;48.818;9.806;2023-11-19T11:16:53;2.20;;;0.97;;
76346;SDS011;73309;48.818;9.806;2023-11-19T11:19:18;1.87;;;1.10;;
76346;SDS011;73309;48.818;9.806;2023-11-19T11:21:45;1.23;;;0.90;;
76346;SDS011;73309;48.818;9.806;2023-11-19T11:24:20;1.00;;;0.90;;
76346;SDS011;73309;48.818;9.806;2023-11-19T11:27:02;1.23;;;1.03;;
76346;SDS011;73309;48.818;9.806;2023-11-19T11:29:41;1.20;;;0.90;;
76346;SDS011;73309;48.818;9.806;2023-11-19T11:32:16;1.10;;;1.00;;
76346;SDS011;73309;48.818;9.806;2023-11-19T11:34:58;1.10;;;1.00;;
76346;SDS011;73309;48.818;9.806;2023-11-19T11:37:34;0.80;;;0.80;;
76346;SDS011;73309;48.818;9.806;2023-11-19T11:40:04;1.17;;;0.93;;
76346;SDS011;73309;48.818;9.806;2023-11-19T11:42:31;0.90;;;0.90;;
76346;SDS011;73309;48.818;9.806;2023-11-19T11:44:59;0.80;;;0.80;;
76346;SDS011;73309;48.818;9.806;2023-11-19T11:47:26;0.97;;;0.87;;
76346;SDS011;73309;48.818;9.806;2023-11-19T11:50:27;0.90;;;0.90;;
76346;SDS011;73309;48.818;9.806;2023-11-19T11:55:53;1.33;;;1.10;;
76346;SDS011;73309;48.818;9.806;2023-11-19T11:58:19;1.07;;;0.90;;
76346;SDS011;73309;48.818;9.806;2023-11-19T12:00:45;1.27;;;1.00;;
76346;SDS011;73309;48.818;9.806;2023-11-19T12:03:13;0.87;;;0.87;;
76346;SDS011;73309;48.818;9.806;2023-11-19T12:05:40;0.80;;;0.80;;
76346;SDS011;73309;48.818;9.806;2023-11-19T12:08:07;1.10;;;1.00;;
76346;SDS011;73309;48.818;9.806;2023-11-19T12:10:36;1.10;;;1.00;;
76346;SDS011;73309;48.818;9.806;2023-11-19T12:13:07;1.83;;;1.00;;
76346;SDS011;73309;48.818;9.806;2023-11-19T12:15:34;1.17;;;0.90;;
76346;SDS011;73309;48.818;9.806;2023-11-19T12:18:35;1.00;;;0.90;;
76346;SDS011;73309;48.818;9.806;2023-11-19T12:21:03;0.83;;;0.83;;
76346;SDS011;73309;48.818;9.806;2023-11-19T12:23:29;1.97;;;1.20;;
76346;SDS011;73309;48.818;9.806;2023-11-19T12:25:55;1.13;;;0.90;;
76346;SDS011;73309;48.818;9.806;2023-11-19T12:28:20;1.00;;;0.90;;
76346;SDS011;73309;48.818;9.806;2023-11-19T12:30:46;0.77;;;0.77;;
76346;SDS011;73309;48.818;9.806;2023-11-19T12:33:12;1.10;;;1.00;;
76346;SDS011;73309;48.818;9.806;2023-11-19T12:35:40;1.00;;;0.87;;
76346;SDS011;73309;48.818;9.806;2023-11-19T12:38:05;0.93;;;0.93;;
76346;SDS011;73309;48.818;9.806;2023-11-19T12:40:31;1.13;;;1.03;;
76346;SDS011;73309;48.818;9.806;2023-11-19T12:42:56;3.23;;;1.20;;
76346;SDS011;73309;48.818;9.806;2023-11-19T12:45:22;2.17;;;1.20;;
76346;SDS011;73309;48.818;9.806;2023-11-19T12:47:48;1.40;;;1.10;;
76346;SDS011;73309;48.818;9.806;2023-11-19T12:50:14;1.67;;;1.10;;
76346;SDS011;73309;48.818;9.806;2023-11-19T12:52:41;3.13;;;1.20;;
76346;SDS011;73309;48.818;9.806;2023-11-19T12:57:50;1.37;;;0.97;;
76346;SDS011;73309;48.818;9.806;2023-11-19T13:00:18;1.87;;;1.00;;
76346;SDS011;73309;48.818;9.806;2023-11-19T13:02:44;2.80;;;1.40;;
76346;SDS011;73309;48.818;9.806;2023-11-19T13:05:26;2.07;;;1.20;;
76346;SDS011;73309;48.818;9.806;2023-11-19T13:07:59;1.90;;;1.20;;
76346;SDS011;73309;48.818;9.806;2023-11-19T13:10:25;1.40;;;1.10;;
76346;SDS011;73309;48.818;9.806;2023-11-19T13:12:59;2.10;;;1.10;;
76346;SDS011;73309;48.818;9.806;2023-11-19T13:15:28;2.13;;;1.20;;
76346;SDS011;73309;48.818;9.806;2023-11-19T13:17:53;2.67;;;1.20;;
76346;SDS011;73309;48.818;9.806;2023-11-19T13:20:19;1.33;;;1.00;;
76346;SDS011;73309;48.818;9.806;2023-11-19T13:22:53;1.80;;;1.17;;
76346;SDS011;73309;48.818;9.806;2023-11-19T13:25:20;1.47;;;1.10;;
76346;SDS011;73309;48.818;9.806;2023-11-19T13:27:46;1.23;;;1.00;;
76346;SDS011;73309;48.818;9.806;2023-11-19T13:30:12;2.80;;;1.17;;
76346;SDS011;73309;48.818;9.806;2023-11-19T13:32:38;2.50;;;1.10;;
76346;SDS011;73309;48.818;9.806;2023-11-19T13:35:03;1.10;;;1.00;;
76346;SDS011;73309;48.818;9.806;2023-11-19T13:37:29;1.13;;;1.00;;
76346;SDS011;73309;48.818;9.806;2023-11-19T13:39:55;2.30;;;1.10;;
76346;SDS011;73309;48.818;9.806;2023-11-19T13:42:22;0.90;;;0.90;;
76346;SDS011;73309;48.818;9.806;2023-11-19T13:44:47;2.50;;;1.00;;
76346;SDS011;73309;48.818;9.806;2023-11-19T13:47:12;2.70;;;0.90;;
76346;SDS011;73309;48.818;9.806;2023-11-19T13:49:38;2.67;;;0.90;;
76346;SDS011;73309;48.818;9.806;2023-11-19T13:52:03;1.50;;;1.10;;
76346;SDS011;73309;48.818;9.806;2023-11-19T13:54:29;1.00;;;0.90;;
76346;SDS011;73309;48.818;9.806;2023-11-19T13:56:54;2.27;;;1.00;;
76346;SDS011;73309;48.818;9.806;2023-11-19T13:59:21;1.10;;;1.00;;
76346;SDS011;73309;48.818;9.806;2023-11-19T14:01:47;1.70;;;1.00;;
76346;SDS011;73309;48.818;9.806;2023-11-19T14:04:12;1.53;;;1.00;;
76346;SDS011;73309;48.818;9.806;2023-11-19T14:06:37;1.57;;;0.90;;
76346;SDS011;73309;48.818;9.806;2023-11-19T14:09:03;1.87;;;0.93;;
76346;SDS011;73309;48.818;9.806;2023-11-19T14:11:28;1.70;;;1.03;;
76346;SDS011;73309;48.818;9.806;2023-11-19T14:13:54;1.30;;;0.97;;
76346;SDS011;73309;48.818;9.806;2023-11-19T14:16:20;1.63;;;1.00;;
76346;SDS011;73309;48.818;9.806;2023-11-19T14:18:49;1.70;;;1.10;;
76346;SDS011;73309;48.818;9.806;2023-11-19T14:21:14;1.33;;;0.90;;
76346;SDS011;73309;48.818;9.806;2023-11-19T14:23:39;2.17;;;1.00;;
76346;SDS011;73309;48.818;9.806;2023-11-19T14:26:05;1.33;;;1.00;;
76346;SDS011;73309;48.818;9.806;2023-11-19T14:28:30;1.73;;;1.00;;
76346;SDS011;73309;48.818;9.806;2023-11-19T14:30:56;1.67;;;0.90;;
76346;SDS011;73309;48.818;9.806;2023-11-19T14:33:22;1.20;;;1.00;;
76346;SDS011;73309;48.818;9.806;2023-11-19T14:35:48;1.30;;;1.00;;
76346;SDS011;73309;48.818;9.806;2023-11-19T14:38:13;1.30;;;0.90;;
76346;SDS011;73309;48.818;9.806;2023-11-19T14:40:38;1.43;;;1.00;;
76346;SDS011;73309;48.818;9.806;2023-11-19T14:43:04;1.27;;;0.90;;
76346;SDS011;73309;48.818;9.806;2023-11-19T14:45:29;1.77;;;1.00;;
76346;SDS011;73309;48.818;9.806;2023-11-19T14:47:54;1.57;;;0.97;;